Welcome to La Porte Aviation Services!

An aviation adventure awaits

Current Weather Conditions

Available data for KPPO from the past 2 hours
LA PORTE, IN
Metar
KPPO 250715Z AUTO 18007KT 10SM VCTS BKN033 BKN044 OVC110 20/19 A2998 RMK AO2 LTG DSNT S THRU W T02020190

07:15 UTC

Wind: 180° 7kt

Visibility: 10 SM

Sky: BKN 3300 ft

Temp: 20 deg C / 68 deg F

Dewpoint: 19 deg C / 66.2 deg F

Pressure: 29.98 inHg

Pirep (1)
ORD UA /OV DNV/TM 0726/FL370/TP H747/TB MOD

Connect with us on Facebook!

Facebook By Weblizar Powered By Weblizar